sensor_id;sensor_type;location;lat;lon;timestamp;pressure;altitude;pressure_sealevel;temperature;humidity
73671;BME280;61968;48.178;11.566;2022-08-14T00:00:40;95513.00;;;20.23;29.70
73671;BME280;61968;48.178;11.566;2022-08-14T00:03:07;95509.03;;;20.20;29.90
73671;BME280;61968;48.178;11.566;2022-08-14T00:05:34;95511.44;;;20.22;29.61
73671;BME280;61968;48.178;11.566;2022-08-14T00:08:00;95501.09;;;20.15;29.93
73671;BME280;61968;48.178;11.566;2022-08-14T00:10:27;95498.66;;;20.13;29.94
73671;BME280;61968;48.178;11.566;2022-08-14T00:12:54;95498.66;;;20.13;30.22
73671;BME280;61968;48.178;11.566;2022-08-14T00:15:23;95497.97;;;20.08;30.38
73671;BME280;61968;48.178;11.566;2022-08-14T00:17:52;95494.78;;;20.06;30.16
73671;BME280;61968;48.178;11.566;2022-08-14T00:20:23;95495.59;;;20.06;30.18
73671;BME280;61968;48.178;11.566;2022-08-14T00:22:50;95500.94;;;20.06;29.97
73671;BME280;61968;48.178;11.566;2022-08-14T00:25:16;95492.09;;;20.06;30.25
73671;BME280;61968;48.178;11.566;2022-08-14T00:27:43;95492.91;;;20.06;29.98
73671;BME280;61968;48.178;11.566;2022-08-14T00:30:12;95488.63;;;20.05;30.46
73671;BME280;61968;48.178;11.566;2022-08-14T00:32:39;95496.97;;;20.04;30.50
73671;BME280;61968;48.178;11.566;2022-08-14T00:35:08;95491.59;;;20.04;30.36
73671;BME280;61968;48.178;11.566;2022-08-14T00:37:37;95477.19;;;20.00;30.62
73671;BME280;61968;48.178;11.566;2022-08-14T00:40:05;95476.78;;;19.92;30.78
73671;BME280;61968;48.178;11.566;2022-08-14T00:42:33;95476.28;;;19.90;30.87
73671;BME280;61968;48.178;11.566;2022-08-14T00:44:59;95473.97;;;19.84;31.06
73671;BME280;61968;48.178;11.566;2022-08-14T00:47:26;95480.44;;;19.83;30.87
73671;BME280;61968;48.178;11.566;2022-08-14T00:49:54;95473.19;;;19.83;31.02
73671;BME280;61968;48.178;11.566;2022-08-14T00:52:24;95479.66;;;19.82;31.27
73671;BME280;61968;48.178;11.566;2022-08-14T00:54:51;95467.94;;;19.78;31.29
73671;BME280;61968;48.178;11.566;2022-08-14T00:57:19;95472.47;;;19.78;31.20
73671;BME280;61968;48.178;11.566;2022-08-14T00:59:46;95468.53;;;19.75;31.42
73671;BME280;61968;48.178;11.566;2022-08-14T01:02:14;95464.53;;;19.72;31.40
73671;BME280;61968;48.178;11.566;2022-08-14T01:04:43;95463.44;;;19.73;31.62
73671;BME280;61968;48.178;11.566;2022-08-14T01:07:11;95467.31;;;19.67;31.79
73671;BME280;61968;48.178;11.566;2022-08-14T01:09:48;95455.56;;;19.63;31.93
73671;BME280;61968;48.178;11.566;2022-08-14T01:12:16;95450.00;;;19.60;31.96
73671;BME280;61968;48.178;11.566;2022-08-14T01:14:43;95451.16;;;19.54;32.11
73671;BME280;61968;48.178;11.566;2022-08-14T01:17:10;95454.44;;;19.50;32.10
73671;BME280;61968;48.178;11.566;2022-08-14T01:19:36;95445.81;;;19.54;31.71
73671;BME280;61968;48.178;11.566;2022-08-14T01:22:22;95453.28;;;19.57;32.09
73671;BME280;61968;48.178;11.566;2022-08-14T01:24:49;95452.84;;;19.49;32.21
73671;BME280;61968;48.178;11.566;2022-08-14T01:27:16;95451.25;;;19.48;31.91
73671;BME280;61968;48.178;11.566;2022-08-14T01:29:43;95447.53;;;19.44;32.11
73671;BME280;61968;48.178;11.566;2022-08-14T01:32:11;95445.69;;;19.45;32.10
73671;BME280;61968;48.178;11.566;2022-08-14T01:34:37;95440.09;;;19.41;32.03
73671;BME280;61968;48.178;11.566;2022-08-14T01:37:04;95434.81;;;19.36;32.38
73671;BME280;61968;48.178;11.566;2022-08-14T01:39:32;95434.03;;;19.36;32.39
73671;BME280;61968;48.178;11.566;2022-08-14T01:42:00;95428.38;;;19.37;32.38
73671;BME280;61968;48.178;11.566;2022-08-14T01:44:28;95420.91;;;19.34;32.42
73671;BME280;61968;48.178;11.566;2022-08-14T01:46:56;95412.88;;;19.34;32.46
73671;BME280;61968;48.178;11.566;2022-08-14T01:49:23;95409.78;;;19.27;32.72
73671;BME280;61968;48.178;11.566;2022-08-14T01:51:51;95399.34;;;19.25;32.72
73671;BME280;61968;48.178;11.566;2022-08-14T01:54:22;95398.28;;;19.26;32.46
73671;BME280;61968;48.178;11.566;2022-08-14T01:56:51;95389.72;;;19.24;32.36
73671;BME280;61968;48.178;11.566;2022-08-14T01:59:22;95384.56;;;19.28;32.78
73671;BME280;61968;48.178;11.566;2022-08-14T02:01:53;95384.63;;;19.23;32.75
73671;BME280;61968;48.178;11.566;2022-08-14T02:04:22;95378.59;;;19.17;32.78
73671;BME280;61968;48.178;11.566;2022-08-14T02:06:49;95378.59;;;19.17;32.84
73671;BME280;61968;48.178;11.566;2022-08-14T02:09:18;95379.38;;;19.18;32.87
73671;BME280;61968;48.178;11.566;2022-08-14T02:11:45;95374.03;;;19.18;32.82
73671;BME280;61968;48.178;11.566;2022-08-14T02:14:13;95369.25;;;19.15;33.25
73671;BME280;61968;48.178;11.566;2022-08-14T02:16:41;95367.94;;;19.12;33.19
73671;BME280;61968;48.178;11.566;2022-08-14T02:19:10;95371.22;;;19.09;32.91
73671;BME280;61968;48.178;11.566;2022-08-14T02:21:40;95377.94;;;19.07;33.50
73671;BME280;61968;48.178;11.566;2022-08-14T02:24:07;95378.13;;;18.96;33.30
73671;BME280;61968;48.178;11.566;2022-08-14T02:26:36;95372.78;;;18.96;33.20
73671;BME280;61968;48.178;11.566;2022-08-14T02:29:06;95365.53;;;18.97;33.56
73671;BME280;61968;48.178;11.566;2022-08-14T02:31:37;95369.00;;;18.97;33.32
73671;BME280;61968;48.178;11.566;2022-08-14T02:34:06;95367.63;;;19.00;33.49
73671;BME280;61968;48.178;11.566;2022-08-14T02:36:35;95373.78;;;19.00;33.42
73671;BME280;61968;48.178;11.566;2022-08-14T02:39:01;95368.47;;;18.95;33.36
73671;BME280;61968;48.178;11.566;2022-08-14T02:41:28;95365.31;;;18.93;33.50
73671;BME280;61968;48.178;11.566;2022-08-14T02:43:56;95362.63;;;18.93;33.08
73671;BME280;61968;48.178;11.566;2022-08-14T02:46:23;95360.03;;;18.88;33.51
73671;BME280;61968;48.178;11.566;2022-08-14T02:48:51;95362.19;;;18.86;33.35
73671;BME280;61968;48.178;11.566;2022-08-14T02:51:17;95362.00;;;18.83;33.38
73671;BME280;61968;48.178;11.566;2022-08-14T02:53:44;95361.19;;;18.82;33.71
73671;BME280;61968;48.178;11.566;2022-08-14T02:56:13;95358.28;;;18.78;33.58
73671;BME280;61968;48.178;11.566;2022-08-14T02:58:44;95361.75;;;18.79;33.70
73671;BME280;61968;48.178;11.566;2022-08-14T03:01:12;95351.31;;;18.77;33.50
73671;BME280;61968;48.178;11.566;2022-08-14T03:03:39;95350.25;;;18.78;33.51
73671;BME280;61968;48.178;11.566;2022-08-14T03:06:08;95347.84;;;18.77;33.62
73671;BME280;61968;48.178;11.566;2022-08-14T03:08:36;95339.88;;;18.72;33.53
73671;BME280;61968;48.178;11.566;2022-08-14T03:11:04;95340.47;;;18.69;33.57
73671;BME280;61968;48.178;11.566;2022-08-14T03:13:34;95342.66;;;18.67;34.01
73671;BME280;61968;48.178;11.566;2022-08-14T03:16:01;95348.59;;;18.64;33.71
73671;BME280;61968;48.178;11.566;2022-08-14T03:18:28;95347.56;;;18.59;33.89
73671;BME280;61968;48.178;11.566;2022-08-14T03:20:55;95342.22;;;18.59;34.09
73671;BME280;61968;48.178;11.566;2022-08-14T03:23:22;95334.28;;;18.54;33.78
73671;BME280;61968;48.178;11.566;2022-08-14T03:25:49;95328.63;;;18.56;33.80
73671;BME280;61968;48.178;11.566;2022-08-14T03:28:16;95329.13;;;18.58;34.14
73671;BME280;61968;48.178;11.566;2022-08-14T03:30:42;95319.81;;;18.55;34.29
73671;BME280;61968;48.178;11.566;2022-08-14T03:33:11;95319.06;;;18.50;33.92
73671;BME280;61968;48.178;11.566;2022-08-14T03:35:39;95324.16;;;18.51;34.04
73671;BME280;61968;48.178;11.566;2022-08-14T03:38:08;95313.53;;;18.46;34.07
73671;BME280;61968;48.178;11.566;2022-08-14T03:40:36;95307.38;;;18.46;33.75
73671;BME280;61968;48.178;11.566;2022-08-14T03:43:04;95314.03;;;18.48;33.88
73671;BME280;61968;48.178;11.566;2022-08-14T03:45:31;95314.63;;;18.45;33.96
73671;BME280;61968;48.178;11.566;2022-08-14T03:48:00;95307.06;;;18.47;34.06
73671;BME280;61968;48.178;11.566;2022-08-14T03:50:28;95312.53;;;18.42;33.72
73671;BME280;61968;48.178;11.566;2022-08-14T03:52:56;95312.28;;;18.39;33.64
73671;BME280;61968;48.178;11.566;2022-08-14T03:55:23;95321.72;;;18.36;33.35
73671;BME280;61968;48.178;11.566;2022-08-14T03:57:51;95314.31;;;18.28;33.46
73671;BME280;61968;48.178;11.566;2022-08-14T04:00:18;95324.25;;;18.27;33.69
73671;BME280;61968;48.178;11.566;2022-08-14T04:02:44;95315.91;;;18.29;33.74
73671;BME280;61968;48.178;11.566;2022-08-14T04:05:12;95313.53;;;18.27;33.33
73671;BME280;61968;48.178;11.566;2022-08-14T04:07:39;95309.75;;;18.28;33.67
73671;BME280;61968;48.178;11.566;2022-08-14T04:10:07;95303.91;;;18.26;33.66
73671;BME280;61968;48.178;11.566;2022-08-14T04:12:34;95302.03;;;18.27;33.71
73671;BME280;61968;48.178;11.566;2022-08-14T04:15:04;95299.84;;;18.29;33.50
73671;BME280;61968;48.178;11.566;2022-08-14T04:17:30;95299.84;;;18.29;33.71
73671;BME280;61968;48.178;11.566;2022-08-14T04:19:57;95302.81;;;18.27;33.23
73671;BME280;61968;48.178;11.566;2022-08-14T04:22:29;95305.00;;;18.25;33.29
73671;BME280;61968;48.178;11.566;2022-08-14T04:24:56;95299.44;;;18.22;33.42
73671;BME280;61968;48.178;11.566;2022-08-14T04:27:24;95302.69;;;18.19;33.42
73671;BME280;61968;48.178;11.566;2022-08-14T04:29:51;95296.34;;;18.09;33.60
73671;BME280;61968;48.178;11.566;2022-08-14T04:32:19;95300.63;;;18.10;33.36
73671;BME280;61968;48.178;11.566;2022-08-14T04:34:47;95305.22;;;18.05;33.55
73671;BME280;61968;48.178;11.566;2022-08-14T04:37:14;95303.94;;;18.02;33.64
73671;BME280;61968;48.178;11.566;2022-08-14T04:39:58;95294.31;;;18.01;33.42
73671;BME280;61968;48.178;11.566;2022-08-14T04:42:43;95290.00;;;18.05;33.31
73671;BME280;61968;48.178;11.566;2022-08-14T04:45:27;95280.53;;;18.13;33.70
73671;BME280;61968;48.178;11.566;2022-08-14T04:48:04;95277.03;;;18.18;33.65
73671;BME280;61968;48.178;11.566;2022-08-14T04:50:42;95280.28;;;18.15;33.34
73671;BME280;61968;48.178;11.566;2022-08-14T04:53:10;95274.63;;;18.16;33.17
73671;BME280;61968;48.178;11.566;2022-08-14T04:55:38;95276.44;;;18.21;33.07
73671;BME280;61968;48.178;11.566;2022-08-14T04:58:05;95278.28;;;18.20;33.25
73671;BME280;61968;48.178;11.566;2022-08-14T05:00:32;95278.03;;;18.22;32.95
73671;BME280;61968;48.178;11.566;2022-08-14T05:02:58;95278.81;;;18.22;33.27
73671;BME280;61968;48.178;11.566;2022-08-14T05:05:29;95275.84;;;18.24;32.90
73671;BME280;61968;48.178;11.566;2022-08-14T05:07:56;95273.47;;;18.22;33.03
73671;BME280;61968;48.178;11.566;2022-08-14T05:10:22;95272.09;;;18.25;33.53
73671;BME280;61968;48.178;11.566;2022-08-14T05:12:50;95265.72;;;18.21;32.54
73671;BME280;61968;48.178;11.566;2022-08-14T05:15:18;95261.75;;;18.18;32.30
73671;BME280;61968;48.178;11.566;2022-08-14T05:17:45;95260.97;;;18.18;32.69
73671;BME280;61968;48.178;11.566;2022-08-14T05:20:13;95259.56;;;18.20;32.54
73671;BME280;61968;48.178;11.566;2022-08-14T05:22:41;95258.41;;;18.26;32.32
73671;BME280;61968;48.178;11.566;2022-08-14T05:25:10;95263.16;;;18.29;32.09
73671;BME280;61968;48.178;11.566;2022-08-14T05:27:36;95255.25;;;18.24;32.23
73671;BME280;61968;48.178;11.566;2022-08-14T05:30:04;95261.38;;;18.25;32.34
73671;BME280;61968;48.178;11.566;2022-08-14T05:32:31;95275.50;;;18.30;32.60
73671;BME280;61968;48.178;11.566;2022-08-14T05:34:58;95269.25;;;18.35;32.70
73671;BME280;61968;48.178;11.566;2022-08-14T05:37:27;95273.75;;;18.40;32.37
73671;BME280;61968;48.178;11.566;2022-08-14T05:39:57;95272.44;;;18.37;32.51
73671;BME280;61968;48.178;11.566;2022-08-14T05:42:23;95273.94;;;18.43;32.38
73671;BME280;61968;48.178;11.566;2022-08-14T05:44:50;95269.31;;;18.49;32.03
73671;BME280;61968;48.178;11.566;2022-08-14T05:47:16;95273.94;;;18.43;32.46
73671;BME280;61968;48.178;11.566;2022-08-14T05:49:42;95274.47;;;18.45;31.67
73671;BME280;61968;48.178;11.566;2022-08-14T05:52:10;95279.50;;;18.47;31.96
73671;BME280;61968;48.178;11.566;2022-08-14T05:54:36;95276.44;;;18.53;31.85
73671;BME280;61968;48.178;11.566;2022-08-14T05:57:04;95279.56;;;18.61;32.03
73671;BME280;61968;48.178;11.566;2022-08-14T05:59:31;95277.31;;;18.68;31.96
73671;BME280;61968;48.178;11.566;2022-08-14T06:01:57;95279.00;;;18.77;31.68
73671;BME280;61968;48.178;11.566;2022-08-14T06:04:24;95275.84;;;18.75;31.28
73671;BME280;61968;48.178;11.566;2022-08-14T06:06:50;95276.56;;;18.81;31.38
73671;BME280;61968;48.178;11.566;2022-08-14T06:09:17;95277.63;;;18.80;31.67
73671;BME280;61968;48.178;11.566;2022-08-14T06:11:44;95278.38;;;18.86;31.09
73671;BME280;61968;48.178;11.566;2022-08-14T06:14:12;95283.25;;;18.97;30.74
73671;BME280;61968;48.178;11.566;2022-08-14T06:16:38;95283.34;;;18.92;31.20
73671;BME280;61968;48.178;11.566;2022-08-14T06:19:06;95281.47;;;18.93;31.05
73671;BME280;61968;48.178;11.566;2022-08-14T06:21:33;95284.38;;;18.96;31.14
73671;BME280;61968;48.178;11.566;2022-08-14T06:23:59;95284.84;;;18.98;31.07
73671;BME280;61968;48.178;11.566;2022-08-14T06:26:26;95274.63;;;19.00;31.13
73671;BME280;61968;48.178;11.566;2022-08-14T06:28:52;95284.44;;;19.05;31.29
73671;BME280;61968;48.178;11.566;2022-08-14T06:31:20;95284.88;;;19.12;31.29
73671;BME280;61968;48.178;11.566;2022-08-14T06:33:47;95287.88;;;19.24;30.56
73671;BME280;61968;48.178;11.566;2022-08-14T06:36:16;95290.34;;;19.21;30.78
73671;BME280;61968;48.178;11.566;2022-08-14T06:38:42;95286.56;;;19.22;31.13
73671;BME280;61968;48.178;11.566;2022-08-14T06:41:09;95285.97;;;19.25;30.99
73671;BME280;61968;48.178;11.566;2022-08-14T06:43:35;95285.31;;;19.33;31.14
73671;BME280;61968;48.178;11.566;2022-08-14T06:46:02;95283.59;;;19.37;30.95
73671;BME280;61968;48.178;11.566;2022-08-14T06:48:30;95275.34;;;19.47;30.82
73671;BME280;61968;48.178;11.566;2022-08-14T06:50:56;95266.66;;;19.56;30.90
73671;BME280;61968;48.178;11.566;2022-08-14T06:53:23;95277.78;;;19.63;29.93
73671;BME280;61968;48.178;11.566;2022-08-14T06:55:49;95275.91;;;19.63;30.69
73671;BME280;61968;48.178;11.566;2022-08-14T06:58:17;95285.72;;;19.68;30.51
73671;BME280;61968;48.178;11.566;2022-08-14T07:00:45;95274.09;;;19.72;30.84
73671;BME280;61968;48.178;11.566;2022-08-14T07:03:25;95276.97;;;19.76;30.72
73671;BME280;61968;48.178;11.566;2022-08-14T07:06:12;95277.47;;;19.78;31.06
73671;BME280;61968;48.178;11.566;2022-08-14T07:08:39;95275.16;;;19.85;31.36
73671;BME280;61968;48.178;11.566;2022-08-14T07:11:09;95267.22;;;19.94;30.90
73671;BME280;61968;48.178;11.566;2022-08-14T07:13:35;95259.66;;;19.96;30.64
73671;BME280;61968;48.178;11.566;2022-08-14T07:16:02;95262.03;;;19.98;30.61
73671;BME280;61968;48.178;11.566;2022-08-14T07:18:31;95259.72;;;20.05;30.51
73671;BME280;61968;48.178;11.566;2022-08-14T07:20:59;95260.22;;;20.07;30.48
73671;BME280;61968;48.178;11.566;2022-08-14T07:23:27;95248.66;;;20.20;29.76
73671;BME280;61968;48.178;11.566;2022-08-14T07:25:55;95241.59;;;20.24;30.25
73671;BME280;61968;48.178;11.566;2022-08-14T07:28:25;95244.91;;;20.21;30.32
73671;BME280;61968;48.178;11.566;2022-08-14T07:30:53;95241.09;;;20.22;30.42
73671;BME280;61968;48.178;11.566;2022-08-14T07:33:22;95239.09;;;20.28;30.53
73671;BME280;61968;48.178;11.566;2022-08-14T07:35:48;95236.97;;;20.38;30.06
73671;BME280;61968;48.178;11.566;2022-08-14T07:38:16;95223.34;;;20.35;30.39
73671;BME280;61968;48.178;11.566;2022-08-14T07:40:46;95222.56;;;20.34;30.42
73671;BME280;61968;48.178;11.566;2022-08-14T07:43:13;95224.03;;;20.40;30.41
73671;BME280;61968;48.178;11.566;2022-08-14T07:45:40;95213.16;;;20.46;30.75
73671;BME280;61968;48.178;11.566;2022-08-14T07:48:08;95212.72;;;20.52;30.25
73671;BME280;61968;48.178;11.566;2022-08-14T07:50:35;95214.06;;;20.63;30.56
73671;BME280;61968;48.178;11.566;2022-08-14T07:53:02;95208.25;;;20.70;29.55
73671;BME280;61968;48.178;11.566;2022-08-14T07:55:28;95205.75;;;20.74;29.77
73671;BME280;61968;48.178;11.566;2022-08-14T07:57:56;95198.47;;;20.74;29.73
73671;BME280;61968;48.178;11.566;2022-08-14T08:00:23;95202.03;;;20.83;29.09
73671;BME280;61968;48.178;11.566;2022-08-14T08:02:53;95200.31;;;20.88;29.46
73671;BME280;61968;48.178;11.566;2022-08-14T08:05:22;95200.31;;;20.88;29.23
73671;BME280;61968;48.178;11.566;2022-08-14T08:07:51;95205.53;;;20.93;29.07
73671;BME280;61968;48.178;11.566;2022-08-14T08:10:19;95210.16;;;21.01;29.60
73671;BME280;61968;48.178;11.566;2022-08-14T08:13:01;95203.72;;;21.11;28.38
73671;BME280;61968;48.178;11.566;2022-08-14T08:15:30;95199.16;;;21.20;28.57
73671;BME280;61968;48.178;11.566;2022-08-14T08:17:58;95209.00;;;21.24;28.83
73671;BME280;61968;48.178;11.566;2022-08-14T08:20:30;95201.56;;;21.21;28.61
73671;BME280;61968;48.178;11.566;2022-08-14T08:22:57;95200.63;;;21.35;28.63
73671;BME280;61968;48.178;11.566;2022-08-14T08:25:26;95201.28;;;21.40;27.96
73671;BME280;61968;48.178;11.566;2022-08-14T08:27:55;95193.75;;;21.51;28.47
73671;BME280;61968;48.178;11.566;2022-08-14T08:30:23;95200.09;;;21.55;28.70
73671;BME280;61968;48.178;11.566;2022-08-14T08:32:52;95201.03;;;21.59;28.60
73671;BME280;61968;48.178;11.566;2022-08-14T08:35:20;95207.22;;;21.60;28.01
73671;BME280;61968;48.178;11.566;2022-08-14T08:37:48;95200.09;;;21.64;27.50
73671;BME280;61968;48.178;11.566;2022-08-14T08:40:23;95204.22;;;21.61;27.65
73671;BME280;61968;48.178;11.566;2022-08-14T08:42:50;95198.53;;;21.63;27.81
73671;BME280;61968;48.178;11.566;2022-08-14T08:45:16;95205.50;;;21.72;27.63
73671;BME280;61968;48.178;11.566;2022-08-14T08:47:45;95208.22;;;21.81;27.65
73671;BME280;61968;48.178;11.566;2022-08-14T08:50:16;95204.56;;;21.86;27.90
73671;BME280;61968;48.178;11.566;2022-08-14T08:52:52;95200.59;;;21.92;27.51
73671;BME280;61968;48.178;11.566;2022-08-14T08:55:27;95196.81;;;21.93;27.60
73671;BME280;61968;48.178;11.566;2022-08-14T08:57:55;95200.75;;;21.95;27.84
73671;BME280;61968;48.178;11.566;2022-08-14T09:00:22;95180.97;;;22.00;27.12
73671;BME280;61968;48.178;11.566;2022-08-14T09:02:55;95185.75;;;22.03;27.21
73671;BME280;61968;48.178;11.566;2022-08-14T09:05:22;95187.66;;;22.03;28.20
73671;BME280;61968;48.178;11.566;2022-08-14T09:07:49;95192.56;;;22.09;27.43
73671;BME280;61968;48.178;11.566;2022-08-14T09:10:15;95187.19;;;22.18;27.22
73671;BME280;61968;48.178;11.566;2022-08-14T09:12:44;95190.38;;;22.20;27.28
73671;BME280;61968;48.178;11.566;2022-08-14T09:15:10;95192.41;;;22.23;27.56
73671;BME280;61968;48.178;11.566;2022-08-14T09:17:37;95191.59;;;22.22;27.38
73671;BME280;61968;48.178;11.566;2022-08-14T09:20:06;95187.00;;;22.32;27.53
73671;BME280;61968;48.178;11.566;2022-08-14T09:22:34;95172.72;;;22.40;26.94
73671;BME280;61968;48.178;11.566;2022-08-14T09:25:00;95169.09;;;22.44;27.19
73671;BME280;61968;48.178;11.566;2022-08-14T09:27:27;95176.06;;;22.45;26.62
73671;BME280;61968;48.178;11.566;2022-08-14T09:29:53;95171.31;;;22.42;26.80
73671;BME280;61968;48.178;11.566;2022-08-14T09:32:27;95174.91;;;22.55;26.94
73671;BME280;61968;48.178;11.566;2022-08-14T09:35:02;95175.72;;;22.56;26.09
73671;BME280;61968;48.178;11.566;2022-08-14T09:37:47;95176.97;;;22.58;26.58
73671;BME280;61968;48.178;11.566;2022-08-14T09:40:26;95170.97;;;22.61;26.79
73671;BME280;61968;48.178;11.566;2022-08-14T09:43:04;95166.03;;;22.72;26.76
73671;BME280;61968;48.178;11.566;2022-08-14T09:45:37;95163.50;;;22.76;26.38
73671;BME280;61968;48.178;11.566;2022-08-14T09:48:13;95170.41;;;22.85;26.84
73671;BME280;61968;48.178;11.566;2022-08-14T09:50:45;95175.50;;;22.87;25.92
73671;BME280;61968;48.178;11.566;2022-08-14T09:53:17;95172.16;;;22.90;26.28
73671;BME280;61968;48.178;11.566;2022-08-14T09:55:44;95176.94;;;22.84;26.22
73671;BME280;61968;48.178;11.566;2022-08-14T09:58:22;95166.91;;;22.94;26.03
73671;BME280;61968;48.178;11.566;2022-08-14T10:00:51;95171.94;;;23.04;25.85
73671;BME280;61968;48.178;11.566;2022-08-14T10:03:24;95163.53;;;23.05;25.45
73671;BME280;61968;48.178;11.566;2022-08-14T10:06:05;95153.72;;;23.01;25.91
73671;BME280;61968;48.178;11.566;2022-08-14T10:08:42;95157.38;;;22.96;25.00
73671;BME280;61968;48.178;11.566;2022-08-14T10:11:18;95154.34;;;22.98;24.74
73671;BME280;61968;48.178;11.566;2022-08-14T10:13:46;95151.63;;;23.06;25.46
73671;BME280;61968;48.178;11.566;2022-08-14T10:16:16;95140.16;;;23.18;24.97
73671;BME280;61968;48.178;11.566;2022-08-14T10:18:42;95148.22;;;23.27;24.83
73671;BME280;61968;48.178;11.566;2022-08-14T10:21:15;95139.47;;;23.30;25.05
73671;BME280;61968;48.178;11.566;2022-08-14T10:23:46;95140.88;;;23.36;25.51
73671;BME280;61968;48.178;11.566;2022-08-14T10:26:16;95138.56;;;23.47;24.88
73671;BME280;61968;48.178;11.566;2022-08-14T10:28:45;95135.41;;;23.45;24.55
73671;BME280;61968;48.178;11.566;2022-08-14T10:31:16;95134.91;;;23.51;24.52
73671;BME280;61968;48.178;11.566;2022-08-14T10:33:42;95124.94;;;23.43;24.27
73671;BME280;61968;48.178;11.566;2022-08-14T10:36:10;95122.13;;;23.40;25.29
73671;BME280;61968;48.178;11.566;2022-08-14T10:38:37;95129.03;;;23.49;24.71
73671;BME280;61968;48.178;11.566;2022-08-14T10:41:12;95119.75;;;23.59;24.39
73671;BME280;61968;48.178;11.566;2022-08-14T10:43:40;95123.63;;;23.70;24.46
73671;BME280;61968;48.178;11.566;2022-08-14T10:46:15;95118.78;;;23.64;23.64
73671;BME280;61968;48.178;11.566;2022-08-14T10:48:54;95118.13;;;23.67;24.15
73671;BME280;61968;48.178;11.566;2022-08-14T10:51:23;95107.09;;;23.80;24.25
73671;BME280;61968;48.178;11.566;2022-08-14T10:53:53;95114.00;;;23.90;23.35
73671;BME280;61968;48.178;11.566;2022-08-14T10:56:28;95112.28;;;23.86;24.05
73671;BME280;61968;48.178;11.566;2022-08-14T10:58:59;95112.84;;;23.91;24.05
73671;BME280;61968;48.178;11.566;2022-08-14T11:01:29;95089.34;;;23.92;23.86
73671;BME280;61968;48.178;11.566;2022-08-14T11:03:56;95088.13;;;24.01;22.99
73671;BME280;61968;48.178;11.566;2022-08-14T11:06:23;95092.56;;;24.06;22.70
73671;BME280;61968;48.178;11.566;2022-08-14T11:08:49;95096.25;;;24.01;22.74
73671;BME280;61968;48.178;11.566;2022-08-14T11:11:16;95089.78;;;24.15;22.98
73671;BME280;61968;48.178;11.566;2022-08-14T11:13:44;95084.03;;;24.16;22.36
73671;BME280;61968;48.178;11.566;2022-08-14T11:16:12;95067.72;;;24.25;23.48
73671;BME280;61968;48.178;11.566;2022-08-14T11:18:43;95071.78;;;24.31;23.65
73671;BME280;61968;48.178;11.566;2022-08-14T11:21:14;95072.41;;;24.37;21.95
73671;BME280;61968;48.178;11.566;2022-08-14T11:23:44;95071.06;;;24.43;21.03
73671;BME280;61968;48.178;11.566;2022-08-14T11:26:11;95067.78;;;24.49;20.10
73671;BME280;61968;48.178;11.566;2022-08-14T11:28:40;95063.88;;;24.59;20.95
73671;BME280;61968;48.178;11.566;2022-08-14T11:31:10;95064.44;;;24.65;21.67
73671;BME280;61968;48.178;11.566;2022-08-14T11:33:38;95057.69;;;24.71;22.09
73671;BME280;61968;48.178;11.566;2022-08-14T11:36:07;95055.53;;;24.77;22.15
73671;BME280;61968;48.178;11.566;2022-08-14T11:38:35;95037.28;;;24.86;21.35
73671;BME280;61968;48.178;11.566;2022-08-14T11:41:02;95045.78;;;24.97;21.66
73671;BME280;61968;48.178;11.566;2022-08-14T11:43:29;95042.03;;;25.01;21.75
73671;BME280;61968;48.178;11.566;2022-08-14T11:45:56;95038.88;;;25.11;22.39
73671;BME280;61968;48.178;11.566;2022-08-14T11:48:25;95028.84;;;25.12;20.20
73671;BME280;61968;48.178;11.566;2022-08-14T11:50:52;95021.59;;;25.16;21.13
73671;BME280;61968;48.178;11.566;2022-08-14T11:53:21;95025.22;;;25.20;21.07
73671;BME280;61968;48.178;11.566;2022-08-14T11:55:54;95010.75;;;25.28;21.48
73671;BME280;61968;48.178;11.566;2022-08-14T11:58:25;95022.03;;;25.30;22.05
73671;BME280;61968;48.178;11.566;2022-08-14T12:00:54;95032.81;;;25.43;22.98
73671;BME280;61968;48.178;11.566;2022-08-14T12:03:33;95024.41;;;25.44;22.83
73671;BME280;61968;48.178;11.566;2022-08-14T12:06:03;95017.16;;;25.48;23.09
73671;BME280;61968;48.178;11.566;2022-08-14T12:08:32;95017.03;;;25.57;22.47
73671;BME280;61968;48.178;11.566;2022-08-14T12:10:58;95024.22;;;25.65;23.43
73671;BME280;61968;48.178;11.566;2022-08-14T12:13:28;95018.06;;;25.80;22.96
73671;BME280;61968;48.178;11.566;2022-08-14T12:15:58;95006.06;;;25.81;22.70
73671;BME280;61968;48.178;11.566;2022-08-14T12:18:30;95005.28;;;25.81;22.68
73671;BME280;61968;48.178;11.566;2022-08-14T12:21:09;95003.47;;;25.85;22.31
73671;BME280;61968;48.178;11.566;2022-08-14T12:23:36;94994.63;;;25.88;22.68
73671;BME280;61968;48.178;11.566;2022-08-14T12:26:03;94996.41;;;25.96;22.99
73671;BME280;61968;48.178;11.566;2022-08-14T12:28:30;94994.19;;;25.98;22.58
73671;BME280;61968;48.178;11.566;2022-08-14T12:30:57;94993.38;;;25.98;22.55
73671;BME280;61968;48.178;11.566;2022-08-14T12:33:26;94982.03;;;26.08;22.83
73671;BME280;61968;48.178;11.566;2022-08-14T12:35:58;94989.56;;;26.15;21.97
73671;BME280;61968;48.178;11.566;2022-08-14T12:38:32;94988.59;;;26.23;22.03
73671;BME280;61968;48.178;11.566;2022-08-14T12:41:00;94981.00;;;26.28;22.92
73671;BME280;61968;48.178;11.566;2022-08-14T12:43:27;94982.56;;;26.29;22.57
73671;BME280;61968;48.178;11.566;2022-08-14T12:45:54;94995.56;;;26.40;22.54
73671;BME280;61968;48.178;11.566;2022-08-14T12:48:21;94993.56;;;26.37;21.79
73671;BME280;61968;48.178;11.566;2022-08-14T12:50:49;94995.75;;;26.47;21.40
73671;BME280;61968;48.178;11.566;2022-08-14T12:53:18;94983.41;;;26.49;22.45
73671;BME280;61968;48.178;11.566;2022-08-14T12:55:57;94978.91;;;26.54;22.13
73671;BME280;61968;48.178;11.566;2022-08-14T12:58:26;94969.78;;;26.62;21.99